Time;durP1;ratioP1;P1;durP2;ratioP2;P2;SDS_P1;SDS_P2;PMS_P1;PMS_P2;Temp;Humidity;BMP_temperature;BMP_pressure;BME280_temperature;BME280_humidity;BME280_pressure;Samples;Min_cycle;Max_cycle;Signal;HPM_P1;HPM_P2
2023/11/02 00:00:57;;;;;;;;;;;15.60;92.60;;;;;;4058186;29;19938;-62
2023/11/02 00:03:40;;;;;;;;;;;15.60;92.20;;;;;;4045306;29;19994;-62
2023/11/02 00:06:25;;;;;;;;;;;15.60;92.20;;;;;;4042216;29;19938;-62
2023/11/02 00:09:18;;;;;;;;;;;15.60;92.30;;;;;;4042820;29;19986;-62
2023/11/02 00:12:01;;;;;;;;;;;15.60;92.30;;;;;;4041883;29;20439;-62
2023/11/02 00:14:44;;;;;;;;;;;15.60;92.20;;;;;;4042880;29;20390;-63
2023/11/02 00:17:57;;;;;;;;;;;15.60;92.30;;;;;;4042023;29;20726;-62
2023/11/02 00:20:45;;;;;;;;;;;15.50;92.30;;;;;;4030995;29;20390;-63
2023/11/02 00:23:36;;;;;;;;;;;15.50;92.80;;;;;;4030428;29;20602;-63
2023/11/02 00:26:19;;;;;;;;;;;15.50;92.40;;;;;;4029472;29;19943;-58
2023/11/02 00:29:02;;;;;;;;;;;15.50;92.30;;;;;;4043024;29;19987;-64
2023/11/02 00:31:42;;;;;;;;;;;15.50;92.40;;;;;;4041905;29;19951;-66
2023/11/02 00:34:23;;;;;;;;;;;15.50;92.40;;;;;;4020497;29;19934;-62
2023/11/02 00:37:06;;;;;;;;;;;15.50;92.40;;;;;;4042063;29;20059;-63
2023/11/02 00:39:47;;;;;;;;;;;15.50;92.40;;;;;;4030705;29;19939;-62
2023/11/02 00:42:28;;;;;;;;;;;15.50;92.40;;;;;;4031295;29;19950;-62
2023/11/02 00:45:09;;;;;;;;;;;15.50;92.40;;;;;;4031489;29;19993;-62
2023/11/02 00:47:50;;;;;;;;;;;15.50;92.40;;;;;;4040864;29;19938;-62
2023/11/02 00:50:46;;;;;;;;;;;15.50;92.40;;;;;;4034998;29;19953;-62
2023/11/02 00:53:28;;;;;;;;;;;15.50;92.50;;;;;;4056585;29;20082;-61
2023/11/02 00:56:09;;;;;;;;;;;15.50;92.40;;;;;;4043729;29;19934;-62
2023/11/02 00:58:51;;;;;;;;;;;15.50;92.40;;;;;;4044534;29;19978;-62
2023/11/02 01:01:32;;;;;;;;;;;15.40;92.40;;;;;;4044149;29;19934;-62
2023/11/02 01:04:28;;;;;;;;;;;15.40;92.50;;;;;;4045065;29;19986;-62
2023/11/02 01:07:10;;;;;;;;;;;15.40;92.50;;;;;;4050210;29;19987;-62
2023/11/02 01:09:57;;;;;;;;;;;15.40;92.40;;;;;;4059847;29;19938;-63
2023/11/02 01:12:38;;;;;;;;;;;15.50;92.40;;;;;;4059499;29;19934;-63
2023/11/02 01:15:45;;;;;;;;;;;15.40;92.40;;;;;;4059581;29;20067;-62
2023/11/02 01:18:27;;;;;;;;;;;15.40;92.50;;;;;;4031646;29;19938;-63
2023/11/02 01:21:08;;;;;;;;;;;15.40;92.50;;;;;;4044491;29;20492;-63
2023/11/02 01:23:54;;;;;;;;;;;15.40;92.90;;;;;;4026090;29;19937;-63
2023/11/02 01:26:54;;;;;;;;;;;15.40;92.50;;;;;;4059869;29;20049;-64
2023/11/02 01:29:36;;;;;;;;;;;15.40;92.50;;;;;;4059813;29;20467;-63
2023/11/02 01:32:17;;;;;;;;;;;15.40;92.60;;;;;;4060618;29;19934;-62
2023/11/02 01:34:58;;;;;;;;;;;15.30;92.50;;;;;;4060523;29;19934;-62
2023/11/02 01:37:39;;;;;;;;;;;15.40;92.50;;;;;;4060274;29;19938;-63
2023/11/02 01:40:31;;;;;;;;;;;15.40;92.50;;;;;;4049065;29;19938;-63
2023/11/02 01:43:14;;;;;;;;;;;15.30;92.50;;;;;;4048422;29;20286;-62
2023/11/02 01:45:58;;;;;;;;;;;15.30;92.60;;;;;;4033618;29;20079;-63
2023/11/02 01:48:41;;;;;;;;;;;15.30;92.50;;;;;;4044662;29;19954;-63
2023/11/02 01:51:27;;;;;;;;;;;15.40;92.60;;;;;;4044770;29;19933;-62
2023/11/02 01:54:12;;;;;;;;;;;15.30;92.60;;;;;;4044902;29;19938;-63
2023/11/02 01:56:55;;;;;;;;;;;15.30;92.50;;;;;;4044295;29;19964;-63
2023/11/02 01:59:37;;;;;;;;;;;15.30;92.60;;;;;;4032887;29;19934;-57
2023/11/02 02:02:24;;;;;;;;;;;15.30;92.50;;;;;;4032720;29;20295;-55
2023/11/02 02:05:10;;;;;;;;;;;15.30;92.50;;;;;;4033064;29;19935;-52
2023/11/02 02:07:58;;;;;;;;;;;15.40;92.40;;;;;;4045098;29;20386;-56
2023/11/02 02:10:48;;;;;;;;;;;15.40;92.30;;;;;;4060073;29;19938;-54
2023/11/02 02:13:30;;;;;;;;;;;15.40;92.20;;;;;;4059787;29;19946;-55
2023/11/02 02:16:15;;;;;;;;;;;15.50;92.10;;;;;;4033247;29;19982;-57
2023/11/02 02:19:00;;;;;;;;;;;15.50;92.00;;;;;;4044133;29;19943;-55
2023/11/02 02:21:46;;;;;;;;;;;15.60;92.40;;;;;;4034866;29;19981;-55
2023/11/02 02:24:28;;;;;;;;;;;15.60;91.90;;;;;;4043649;29;19938;-57
2023/11/02 02:27:34;;;;;;;;;;;15.60;91.80;;;;;;4032290;29;19934;-54
2023/11/02 02:30:30;;;;;;;;;;;15.60;91.70;;;;;;4031171;29;19938;-57
2023/11/02 02:33:31;;;;;;;;;;;15.60;91.60;;;;;;4031309;29;20303;-61
2023/11/02 02:36:14;;;;;;;;;;;15.60;91.50;;;;;;4031062;29;20376;-53
2023/11/02 02:39:01;;;;;;;;;;;15.60;91.50;;;;;;4032067;29;20091;-55
2023/11/02 02:41:44;;;;;;;;;;;15.70;91.40;;;;;;4032361;29;20385;-53
2023/11/02 02:44:25;;;;;;;;;;;15.70;91.30;;;;;;4043231;29;19939;-56
2023/11/02 02:47:06;;;;;;;;;;;15.70;91.10;;;;;;4032103;29;19938;-57
2023/11/02 02:49:51;;;;;;;;;;;15.70;91.00;;;;;;4043597;29;19937;-56
2023/11/02 02:52:34;;;;;;;;;;;15.70;90.90;;;;;;4058123;29;19949;-56
2023/11/02 02:55:16;;;;;;;;;;;15.70;90.90;;;;;;4059166;29;19934;-54
2023/11/02 02:57:58;;;;;;;;;;;15.70;90.80;;;;;;4058690;29;19933;-54
2023/11/02 03:00:40;;;;;;;;;;;15.70;90.70;;;;;;4059058;29;20354;-54
2023/11/02 03:03:23;;;;;;;;;;;15.60;90.70;;;;;;4056075;29;19938;-56
2023/11/02 03:06:04;;;;;;;;;;;15.60;90.60;;;;;;4047145;29;19946;-56
2023/11/02 03:08:48;;;;;;;;;;;15.60;90.70;;;;;;4047212;29;19938;-54
2023/11/02 03:11:30;;;;;;;;;;;15.60;90.60;;;;;;4046277;29;19958;-56
2023/11/02 03:14:13;;;;;;;;;;;15.70;90.60;;;;;;4058468;29;19938;-53
2023/11/02 03:16:54;;;;;;;;;;;15.70;90.50;;;;;;4045666;29;19935;-57
2023/11/02 03:19:44;;;;;;;;;;;15.70;90.30;;;;;;4059063;29;20054;-53
2023/11/02 03:22:25;;;;;;;;;;;15.70;90.20;;;;;;4046936;29;19938;-52
2023/11/02 03:25:09;;;;;;;;;;;15.70;90.20;;;;;;4045940;29;20062;-56
2023/11/02 03:27:56;;;;;;;;;;;15.60;90.20;;;;;;4057495;29;19934;-56
2023/11/02 03:30:43;;;;;;;;;;;15.60;90.20;;;;;;4040403;29;20434;-56
2023/11/02 03:33:27;;;;;;;;;;;15.60;90.30;;;;;;4043145;29;20390;-55
2023/11/02 03:36:10;;;;;;;;;;;15.70;90.20;;;;;;4043175;29;20084;-57
2023/11/02 03:38:59;;;;;;;;;;;15.70;90.10;;;;;;4043429;29;19950;-55
2023/11/02 03:41:50;;;;;;;;;;;15.70;90.00;;;;;;4051746;29;19934;-56
2023/11/02 03:44:35;;;;;;;;;;;15.70;90.00;;;;;;4038755;29;19943;-57
2023/11/02 03:47:22;;;;;;;;;;;15.70;89.90;;;;;;4042837;29;19937;-54
2023/11/02 03:50:09;;;;;;;;;;;15.70;90.00;;;;;;4042851;29;19938;-56
2023/11/02 03:52:54;;;;;;;;;;;15.70;90.00;;;;;;4042845;29;20437;-57
2023/11/02 03:55:42;;;;;;;;;;;15.70;89.80;;;;;;4042996;29;19978;-55
2023/11/02 03:58:31;;;;;;;;;;;15.80;89.70;;;;;;4043152;29;19934;-56
2023/11/02 04:01:16;;;;;;;;;;;15.80;90.10;;;;;;4049340;29;19938;-56
2023/11/02 04:03:59;;;;;;;;;;;15.80;89.50;;;;;;4046479;29;19938;-54
2023/11/02 04:06:44;;;;;;;;;;;15.70;89.30;;;;;;4057733;29;19970;-57
2023/11/02 04:09:28;;;;;;;;;;;15.70;89.30;;;;;;4056680;29;19950;-57
2023/11/02 04:12:14;;;;;;;;;;;15.70;89.20;;;;;;4043436;29;20310;-56
2023/11/02 04:14:59;;;;;;;;;;;15.70;89.50;;;;;;4042924;29;20287;-56
2023/11/02 04:17:40;;;;;;;;;;;15.70;89.60;;;;;;4042706;29;19939;-63
2023/11/02 04:20:21;;;;;;;;;;;15.70;89.40;;;;;;4043184;29;19934;-62
2023/11/02 04:23:02;;;;;;;;;;;15.70;89.20;;;;;;4057786;29;19950;-63
2023/11/02 04:25:43;;;;;;;;;;;15.70;89.00;;;;;;4057487;29;20290;-64
2023/11/02 04:28:24;;;;;;;;;;;15.70;89.00;;;;;;4058571;29;20282;-63
2023/11/02 04:31:06;;;;;;;;;;;15.70;88.90;;;;;;4045728;29;20405;-64
2023/11/02 04:33:47;;;;;;;;;;;15.70;88.90;;;;;;4045567;29;19938;-63
2023/11/02 04:36:28;;;;;;;;;;;15.70;88.80;;;;;;4045673;29;20299;-63
2023/11/02 04:39:08;;;;;;;;;;;15.70;89.60;;;;;;4046000;29;19986;-64
2023/11/02 04:41:49;;;;;;;;;;;15.70;88.70;;;;;;4045223;29;19935;-64
2023/11/02 04:44:30;;;;;;;;;;;15.70;88.60;;;;;;4045514;29;19942;-61
2023/11/02 04:47:11;;;;;;;;;;;15.70;89.40;;;;;;4045403;29;20741;-62
2023/11/02 04:49:53;;;;;;;;;;;15.70;88.70;;;;;;4045202;29;19962;-54
2023/11/02 04:52:36;;;;;;;;;;;15.70;88.60;;;;;;4044866;29;20037;-63
2023/11/02 04:55:19;;;;;;;;;;;15.70;89.40;;;;;;4044470;29;20393;-63
2023/11/02 04:58:00;;;;;;;;;;;15.80;88.40;;;;;;4051811;29;19934;-62
2023/11/02 05:00:40;;;;;;;;;;;15.80;88.10;;;;;;4056401;29;19939;-62
2023/11/02 05:03:22;;;;;;;;;;;15.80;88.10;;;;;;4045426;29;20003;-62
2023/11/02 05:06:03;;;;;;;;;;;15.80;88.00;;;;;;4045376;29;19937;-63
2023/11/02 05:08:44;;;;;;;;;;;15.80;88.00;;;;;;4045131;29;19934;-63
2023/11/02 05:11:25;;;;;;;;;;;15.80;88.60;;;;;;4056444;29;19943;-62
2023/11/02 05:14:06;;;;;;;;;;;15.80;87.50;;;;;;4060454;29;20302;-63
2023/11/02 05:16:46;;;;;;;;;;;15.80;87.40;;;;;;4060720;29;20306;-62
2023/11/02 05:19:28;;;;;;;;;;;15.80;87.40;;;;;;4045244;29;19939;-63
2023/11/02 05:22:09;;;;;;;;;;;15.80;87.20;;;;;;4045303;29;19934;-62
2023/11/02 05:24:50;;;;;;;;;;;15.80;87.00;;;;;;4033445;29;19950;-63
2023/11/02 05:27:31;;;;;;;;;;;15.90;86.90;;;;;;4047348;29;19951;-63
2023/11/02 05:30:11;;;;;;;;;;;15.90;86.70;;;;;;4055723;29;19939;-63
2023/11/02 05:32:52;;;;;;;;;;;15.90;86.70;;;;;;4060564;29;20030;-63
2023/11/02 05:35:34;;;;;;;;;;;15.90;86.40;;;;;;4060064;29;19982;-63
2023/11/02 05:38:15;;;;;;;;;;;15.90;86.20;;;;;;4049935;29;19939;-66
2023/11/02 05:40:56;;;;;;;;;;;15.90;86.10;;;;;;4053866;29;19934;-63
2023/11/02 05:43:36;;;;;;;;;;;15.90;86.00;;;;;;4060146;29;19938;-63
2023/11/02 05:46:17;;;;;;;;;;;15.90;86.10;;;;;;4060036;29;20582;-63
2023/11/02 05:48:58;;;;;;;;;;;15.90;86.20;;;;;;4059602;29;20274;-63
2023/11/02 05:51:40;;;;;;;;;;;15.90;86.00;;;;;;4044455;29;19938;-62
2023/11/02 05:54:21;;;;;;;;;;;16.00;85.70;;;;;;4044581;29;19943;-63
2023/11/02 05:57:02;;;;;;;;;;;16.00;85.70;;;;;;4046329;29;19973;-63
2023/11/02 05:59:42;;;;;;;;;;;15.90;85.60;;;;;;4048100;29;19935;-62
2023/11/02 06:02:23;;;;;;;;;;;15.90;85.60;;;;;;4043956;29;19938;-57
2023/11/02 06:05:04;;;;;;;;;;;15.90;86.50;;;;;;4044789;29;19951;-55
2023/11/02 06:07:47;;;;;;;;;;;15.90;85.70;;;;;;4044789;29;20006;-56
2023/11/02 06:10:28;;;;;;;;;;;15.80;85.70;;;;;;4059432;29;19963;-53
2023/11/02 06:13:09;;;;;;;;;;;15.80;85.90;;;;;;4059463;29;20037;-57
2023/11/02 06:15:49;;;;;;;;;;;15.80;86.20;;;;;;4058150;29;19934;-59
2023/11/02 06:18:30;;;;;;;;;;;15.80;86.10;;;;;;4057310;29;19974;-55
2023/11/02 06:21:11;;;;;;;;;;;15.90;85.60;;;;;;4043732;29;20393;-62
2023/11/02 06:23:53;;;;;;;;;;;15.90;86.20;;;;;;4044402;29;19950;-62
2023/11/02 06:26:34;;;;;;;;;;;15.90;86.20;;;;;;4044085;29;19935;-62
2023/11/02 06:29:15;;;;;;;;;;;15.90;86.50;;;;;;4051251;29;20294;-62
2023/11/02 06:31:55;;;;;;;;;;;16.00;85.50;;;;;;4054540;29;19938;-62
2023/11/02 06:34:37;;;;;;;;;;;16.00;85.30;;;;;;4046095;29;19978;-62
2023/11/02 06:37:19;;;;;;;;;;;16.00;85.20;;;;;;4044142;29;20059;-61
2023/11/02 06:40:01;;;;;;;;;;;16.10;85.10;;;;;;4043961;29;19938;-61
2023/11/02 06:42:42;;;;;;;;;;;16.10;84.80;;;;;;4044181;29;19938;-62
2023/11/02 06:45:22;;;;;;;;;;;16.00;84.70;;;;;;4044976;29;19935;-62
2023/11/02 06:48:03;;;;;;;;;;;16.00;84.70;;;;;;4043943;29;20017;-63
2023/11/02 06:50:46;;;;;;;;;;;16.00;84.80;;;;;;4043630;29;20383;-62
2023/11/02 06:53:27;;;;;;;;;;;16.00;84.60;;;;;;4044249;29;19955;-62
2023/11/02 06:56:09;;;;;;;;;;;16.00;84.40;;;;;;4032362;29;19966;-62
2023/11/02 06:58:50;;;;;;;;;;;16.00;84.20;;;;;;4043700;29;19934;-54
2023/11/02 07:01:31;;;;;;;;;;;16.00;84.40;;;;;;4043632;29;19934;-56
2023/11/02 07:04:11;;;;;;;;;;;16.00;84.50;;;;;;4050366;29;19942;-62
2023/11/02 07:06:52;;;;;;;;;;;16.00;84.50;;;;;;4058886;29;19934;-62
2023/11/02 07:09:33;;;;;;;;;;;16.00;84.60;;;;;;4059071;29;19950;-62
2023/11/02 07:12:15;;;;;;;;;;;16.00;85.30;;;;;;4058821;29;19973;-62
2023/11/02 07:14:56;;;;;;;;;;;16.00;84.60;;;;;;4055040;29;19950;-61
2023/11/02 07:17:37;;;;;;;;;;;16.00;85.00;;;;;;4059587;29;19941;-61
2023/11/02 07:20:18;;;;;;;;;;;16.00;85.50;;;;;;4058540;29;20006;-51
2023/11/02 07:22:59;;;;;;;;;;;16.00;86.20;;;;;;4055497;29;19935;-56
2023/11/02 07:25:39;;;;;;;;;;;16.00;86.80;;;;;;4043054;29;19973;-53
2023/11/02 07:28:22;;;;;;;;;;;16.00;87.60;;;;;;4043399;29;19959;-49
2023/11/02 07:31:03;;;;;;;;;;;16.10;88.10;;;;;;4043017;29;19986;-53
2023/11/02 07:33:43;;;;;;;;;;;16.10;88.20;;;;;;4032445;29;20382;-51
2023/11/02 07:36:25;;;;;;;;;;;16.10;88.10;;;;;;4043316;29;20031;-51
2023/11/02 07:39:06;;;;;;;;;;;16.10;87.80;;;;;;4043228;29;20402;-51
2023/11/02 07:41:47;;;;;;;;;;;16.10;87.90;;;;;;4043001;29;19935;-52
2023/11/02 07:44:31;;;;;;;;;;;16.20;87.40;;;;;;4043752;29;19942;-54
2023/11/02 07:47:12;;;;;;;;;;;16.20;87.00;;;;;;4045818;29;19934;-49
2023/11/02 07:49:53;;;;;;;;;;;16.30;86.60;;;;;;4057899;29;19934;-48
2023/11/02 07:52:34;;;;;;;;;;;16.30;86.60;;;;;;4057650;29;19974;-53
2023/11/02 07:55:15;;;;;;;;;;;16.30;86.70;;;;;;4058000;29;20022;-54
2023/11/02 07:57:56;;;;;;;;;;;16.30;86.80;;;;;;4058224;29;19934;-51
2023/11/02 08:00:39;;;;;;;;;;;16.30;86.80;;;;;;4048883;29;20058;-50
2023/11/02 08:03:21;;;;;;;;;;;16.30;87.00;;;;;;4042692;29;20041;-53
2023/11/02 08:06:01;;;;;;;;;;;16.30;87.10;;;;;;4031239;29;19939;-52
2023/11/02 08:08:44;;;;;;;;;;;16.30;87.10;;;;;;4042874;29;19977;-52
2023/11/02 08:11:25;;;;;;;;;;;16.30;87.10;;;;;;4043674;29;19938;-50
2023/11/02 08:14:05;;;;;;;;;;;16.30;87.00;;;;;;4058677;29;19933;-49
2023/11/02 08:16:48;;;;;;;;;;;16.20;87.00;;;;;;4047683;29;20488;-50
2023/11/02 08:19:28;;;;;;;;;;;16.20;87.40;;;;;;4056385;29;20314;-50
2023/11/02 08:22:09;;;;;;;;;;;16.20;87.30;;;;;;4057694;29;19946;-51
2023/11/02 08:24:52;;;;;;;;;;;16.10;87.40;;;;;;4058028;29;20008;-50
2023/11/02 08:27:33;;;;;;;;;;;16.10;87.40;;;;;;4057781;29;20075;-54
2023/11/02 08:30:15;;;;;;;;;;;16.10;87.60;;;;;;4049405;29;19938;-49
2023/11/02 08:32:58;;;;;;;;;;;16.00;87.70;;;;;;4052517;29;19982;-53
2023/11/02 08:35:39;;;;;;;;;;;15.90;87.90;;;;;;4057508;29;19991;-49
2023/11/02 08:38:19;;;;;;;;;;;15.90;88.00;;;;;;4051082;29;20075;-51
2023/11/02 08:41:00;;;;;;;;;;;15.90;88.10;;;;;;4041902;29;19935;-53
2023/11/02 08:43:41;;;;;;;;;;;15.80;88.30;;;;;;4042816;29;20056;-66
2023/11/02 08:46:22;;;;;;;;;;;15.80;88.40;;;;;;4042088;29;19954;-63
2023/11/02 08:49:05;;;;;;;;;;;15.70;88.50;;;;;;4041942;29;19955;-63
2023/11/02 08:51:46;;;;;;;;;;;15.70;88.70;;;;;;4042099;29;20068;-64
2023/11/02 08:54:27;;;;;;;;;;;15.70;88.70;;;;;;4051197;29;20068;-63
2023/11/02 08:57:07;;;;;;;;;;;15.60;88.90;;;;;;4053714;29;20078;-62
2023/11/02 08:59:48;;;;;;;;;;;15.60;88.90;;;;;;4056268;29;19934;-63
2023/11/02 09:02:31;;;;;;;;;;;15.50;89.10;;;;;;4042139;29;19943;-66
2023/11/02 09:05:13;;;;;;;;;;;15.50;89.60;;;;;;4046988;29;20075;-65
2023/11/02 09:07:54;;;;;;;;;;;15.50;89.60;;;;;;4057835;29;19935;-66
2023/11/02 09:10:35;;;;;;;;;;;15.50;90.00;;;;;;4057162;29;20037;-65
2023/11/02 09:13:16;;;;;;;;;;;15.50;89.90;;;;;;4053768;29;19983;-65
2023/11/02 09:15:57;;;;;;;;;;;15.40;89.80;;;;;;4058772;29;20078;-65
2023/11/02 09:18:38;;;;;;;;;;;15.40;90.10;;;;;;4058933;29;19981;-65
2023/11/02 09:21:20;;;;;;;;;;;15.40;90.10;;;;;;4060704;29;19938;-65
2023/11/02 09:24:00;;;;;;;;;;;15.40;90.00;;;;;;4060654;29;20306;-66
2023/11/02 09:26:42;;;;;;;;;;;15.30;90.20;;;;;;4060468;29;20390;-65
2023/11/02 09:29:23;;;;;;;;;;;15.30;90.20;;;;;;4053821;29;19946;-65
2023/11/02 09:32:04;;;;;;;;;;;15.30;90.30;;;;;;4044633;29;19982;-65
2023/11/02 09:34:45;;;;;;;;;;;15.30;90.30;;;;;;4044490;29;19938;-65
2023/11/02 09:37:27;;;;;;;;;;;15.20;90.40;;;;;;4044647;29;19939;-65
2023/11/02 09:40:08;;;;;;;;;;;15.20;90.50;;;;;;4057213;29;20402;-65
2023/11/02 09:42:50;;;;;;;;;;;15.20;91.00;;;;;;4060121;29;20441;-65
2023/11/02 09:45:30;;;;;;;;;;;15.20;90.80;;;;;;4048519;29;19954;-65
2023/11/02 09:48:11;;;;;;;;;;;15.20;91.10;;;;;;4060149;29;20066;-66
2023/11/02 09:50:52;;;;;;;;;;;15.20;90.90;;;;;;4044287;29;19938;-65
2023/11/02 09:53:34;;;;;;;;;;;15.30;91.00;;;;;;4044658;29;19935;-65
2023/11/02 09:56:15;;;;;;;;;;;15.30;91.00;;;;;;4044168;29;19938;-65
2023/11/02 09:58:57;;;;;;;;;;;15.40;90.80;;;;;;4047019;29;20086;-65
2023/11/02 10:01:39;;;;;;;;;;;15.50;90.60;;;;;;4044450;29;19994;-65
2023/11/02 10:04:19;;;;;;;;;;;15.50;90.50;;;;;;4044260;29;19974;-65
2023/11/02 10:07:00;;;;;;;;;;;15.60;90.50;;;;;;4043839;29;19982;-65
2023/11/02 10:09:42;;;;;;;;;;;15.60;90.30;;;;;;4059557;29;19933;-65
2023/11/02 10:12:23;;;;;;;;;;;15.60;90.20;;;;;;4059794;29;20022;-65
2023/11/02 10:15:04;;;;;;;;;;;15.50;90.10;;;;;;4059681;29;20494;-65
2023/11/02 10:17:45;;;;;;;;;;;15.50;90.30;;;;;;4059426;29;20066;-65
2023/11/02 10:20:26;;;;;;;;;;;15.60;90.30;;;;;;4047746;29;20437;-65
2023/11/02 10:23:12;;;;;;;;;;;15.60;90.30;;;;;;4059439;29;19935;-65
2023/11/02 10:25:54;;;;;;;;;;;15.60;90.30;;;;;;4059571;29;19950;-65
2023/11/02 10:28:35;;;;;;;;;;;15.70;90.60;;;;;;4058092;29;19934;-65
2023/11/02 10:31:18;;;;;;;;;;;15.70;90.10;;;;;;4047427;29;20071;-65
2023/11/02 10:33:59;;;;;;;;;;;15.70;90.10;;;;;;4059086;29;20002;-65
2023/11/02 10:36:40;;;;;;;;;;;15.80;90.20;;;;;;4059041;29;19994;-65
2023/11/02 10:39:22;;;;;;;;;;;15.90;90.10;;;;;;4044116;29;19938;-65
2023/11/02 10:42:04;;;;;;;;;;;15.90;89.70;;;;;;4043877;29;19935;-65
2023/11/02 10:44:46;;;;;;;;;;;16.00;89.80;;;;;;4043488;29;19938;-65
2023/11/02 10:47:30;;;;;;;;;;;16.00;89.60;;;;;;4044056;29;19943;-65
2023/11/02 10:50:11;;;;;;;;;;;16.10;90.00;;;;;;4043952;29;19934;-65
2023/11/02 10:52:55;;;;;;;;;;;16.10;89.20;;;;;;4043538;29;19982;-65
2023/11/02 10:55:40;;;;;;;;;;;16.10;89.10;;;;;;4043072;29;20299;-65
2023/11/02 10:58:22;;;;;;;;;;;16.10;89.10;;;;;;4043077;29;20033;-65
2023/11/02 11:01:04;;;;;;;;;;;16.10;89.00;;;;;;4044848;29;19983;-67
2023/11/02 11:03:46;;;;;;;;;;;16.10;89.10;;;;;;4043261;29;19982;-68
2023/11/02 11:06:27;;;;;;;;;;;16.20;89.10;;;;;;4042459;29;19994;-67
2023/11/02 11:09:10;;;;;;;;;;;16.20;88.80;;;;;;4043550;29;20002;-67
2023/11/02 11:11:51;;;;;;;;;;;16.20;88.20;;;;;;4042768;29;19991;-66
2023/11/02 11:14:35;;;;;;;;;;;16.20;87.90;;;;;;4050781;29;20290;-67
2023/11/02 11:17:15;;;;;;;;;;;16.30;87.70;;;;;;4058476;29;19933;-67
2023/11/02 11:19:56;;;;;;;;;;;16.30;87.40;;;;;;4043104;29;19938;-67
2023/11/02 11:22:39;;;;;;;;;;;16.30;87.40;;;;;;4043605;29;19937;-67
2023/11/02 11:25:21;;;;;;;;;;;16.30;87.30;;;;;;4050302;29;20026;-67
2023/11/02 11:28:02;;;;;;;;;;;16.30;87.30;;;;;;4029560;29;20381;-68
2023/11/02 11:30:44;;;;;;;;;;;16.30;87.20;;;;;;4043247;29;19934;-67
2023/11/02 11:33:44;;;;;;;;;;;16.30;87.30;;;;;;4043345;29;19938;-67
2023/11/02 11:36:26;;;;;;;;;;;16.20;87.30;;;;;;4041795;29;19939;-67
2023/11/02 11:39:22;;;;;;;;;;;16.20;87.30;;;;;;4042129;29;19935;-65
2023/11/02 11:42:03;;;;;;;;;;;16.20;87.30;;;;;;4027982;29;19935;-64
2023/11/02 11:44:44;;;;;;;;;;;16.20;87.30;;;;;;4033631;29;19935;-65
2023/11/02 11:47:39;;;;;;;;;;;16.10;87.50;;;;;;4053374;29;19938;-65
2023/11/02 11:50:38;;;;;;;;;;;16.10;87.50;;;;;;4027163;29;19938;-65
2023/11/02 11:53:20;;;;;;;;;;;16.10;87.50;;;;;;4034402;29;19935;-68
2023/11/02 11:56:03;;;;;;;;;;;16.00;87.50;;;;;;4025986;29;19935;-68
2023/11/02 11:58:48;;;;;;;;;;;16.00;87.70;;;;;;4051165;29;20026;-64
2023/11/02 12:01:28;;;;;;;;;;;16.00;87.70;;;;;;4015688;29;20303;-64
2023/11/02 12:04:10;;;;;;;;;;;16.00;88.70;;;;;;4040485;29;19935;-64
2023/11/02 12:06:52;;;;;;;;;;;16.00;87.60;;;;;;4042991;29;20094;-64
2023/11/02 12:09:33;;;;;;;;;;;16.00;87.50;;;;;;4030280;29;19942;-64
2023/11/02 12:12:14;;;;;;;;;;;15.90;88.70;;;;;;4028021;29;19938;-64
2023/11/02 12:14:55;;;;;;;;;;;15.90;87.80;;;;;;4028058;29;19934;-64
2023/11/02 12:17:48;;;;;;;;;;;15.90;87.80;;;;;;4027539;29;19939;-64
2023/11/02 12:20:33;;;;;;;;;;;15.90;87.90;;;;;;4027884;29;19939;-64
2023/11/02 12:23:16;;;;;;;;;;;15.90;89.60;;;;;;4039360;29;19950;-62
2023/11/02 12:25:56;;;;;;;;;;;15.90;88.90;;;;;;4038522;29;19938;-59
2023/11/02 12:28:41;;;;;;;;;;;15.90;89.00;;;;;;4041756;29;19967;-58
2023/11/02 12:31:28;;;;;;;;;;;15.90;89.50;;;;;;4043317;29;20075;-62
2023/11/02 12:34:11;;;;;;;;;;;15.90;89.60;;;;;;4043055;29;20578;-63
2023/11/02 12:36:52;;;;;;;;;;;15.90;89.70;;;;;;4042402;29;19934;-60
2023/11/02 12:39:34;;;;;;;;;;;15.90;90.40;;;;;;4042163;29;19934;-59
2023/11/02 12:42:16;;;;;;;;;;;15.90;90.00;;;;;;4042897;29;20389;-60
2023/11/02 12:44:59;;;;;;;;;;;15.90;90.00;;;;;;4042900;29;19939;-59
2023/11/02 12:47:40;;;;;;;;;;;15.90;89.90;;;;;;4037470;29;20069;-60
2023/11/02 12:50:27;;;;;;;;;;;15.90;90.00;;;;;;4028933;29;20299;-60
2023/11/02 12:53:24;;;;;;;;;;;15.90;90.10;;;;;;4030633;29;19935;-58
2023/11/02 12:56:07;;;;;;;;;;;15.90;90.20;;;;;;4029709;29;19939;-60
2023/11/02 12:58:49;;;;;;;;;;;15.90;90.10;;;;;;4043176;29;20022;-60
2023/11/02 13:01:43;;;;;;;;;;;15.90;90.00;;;;;;4043955;29;19947;-60
2023/11/02 13:04:24;;;;;;;;;;;15.90;90.10;;;;;;4029679;29;19942;-53
2023/11/02 13:07:19;;;;;;;;;;;15.90;90.10;;;;;;4031547;29;20064;-58
2023/11/02 13:10:01;;;;;;;;;;;15.90;90.40;;;;;;4045228;29;20267;-59
2023/11/02 13:12:44;;;;;;;;;;;15.90;90.40;;;;;;4045635;29;19935;-52
2023/11/02 13:15:25;;;;;;;;;;;15.90;90.10;;;;;;4046168;29;19955;-61
2023/11/02 13:18:05;;;;;;;;;;;15.90;90.30;;;;;;4035204;29;20394;-58
2023/11/02 13:20:48;;;;;;;;;;;16.00;90.40;;;;;;4030055;29;19934;-59
2023/11/02 13:23:29;;;;;;;;;;;16.00;90.40;;;;;;4029929;29;20072;-55
2023/11/02 13:26:11;;;;;;;;;;;16.00;90.90;;;;;;4033844;29;20371;-60
2023/11/02 13:28:53;;;;;;;;;;;16.10;90.60;;;;;;4045599;29;19938;-60
2023/11/02 13:31:34;;;;;;;;;;;16.10;90.50;;;;;;4048790;29;19954;-61
2023/11/02 13:34:15;;;;;;;;;;;16.10;90.70;;;;;;4045191;29;19982;-61
2023/11/02 13:36:56;;;;;;;;;;;16.10;90.00;;;;;;4044735;29;19942;-61
2023/11/02 13:39:37;;;;;;;;;;;16.10;90.10;;;;;;4045847;29;20380;-66
2023/11/02 13:42:18;;;;;;;;;;;16.10;90.20;;;;;;4044962;29;19935;-65
2023/11/02 13:45:00;;;;;;;;;;;16.10;89.20;;;;;;4045255;29;20399;-66
2023/11/02 13:47:41;;;;;;;;;;;16.10;89.00;;;;;;4055516;29;20493;-65
2023/11/02 13:50:23;;;;;;;;;;;16.10;89.60;;;;;;4056019;29;19938;-65
2023/11/02 13:53:07;;;;;;;;;;;16.10;89.40;;;;;;4051707;29;20022;-65
2023/11/02 13:55:49;;;;;;;;;;;16.00;89.20;;;;;;4043964;29;19957;-66
2023/11/02 13:58:30;;;;;;;;;;;16.00;89.10;;;;;;4044675;29;19942;-65
2023/11/02 14:01:12;;;;;;;;;;;16.00;89.50;;;;;;4050380;29;20026;-65
2023/11/02 14:03:53;;;;;;;;;;;15.90;89.30;;;;;;4044424;29;19950;-65
2023/11/02 14:06:34;;;;;;;;;;;15.90;90.30;;;;;;4044296;29;19951;-65
2023/11/02 14:09:16;;;;;;;;;;;15.90;89.50;;;;;;4048418;29;19982;-65
2023/11/02 14:11:57;;;;;;;;;;;15.90;89.40;;;;;;4049051;29;20019;-65
2023/11/02 14:14:39;;;;;;;;;;;15.90;89.30;;;;;;4044537;29;20067;-65
2023/11/02 14:17:22;;;;;;;;;;;15.90;88.90;;;;;;4055218;29;19950;-59
2023/11/02 14:20:06;;;;;;;;;;;15.80;88.40;;;;;;4044639;29;19954;-60
2023/11/02 14:22:47;;;;;;;;;;;15.80;88.50;;;;;;4044571;29;19934;-59
2023/11/02 14:25:27;;;;;;;;;;;15.80;87.40;;;;;;4049671;29;20390;-59
2023/11/02 14:28:09;;;;;;;;;;;15.80;88.70;;;;;;4044213;29;20298;-59
2023/11/02 14:30:50;;;;;;;;;;;15.80;87.90;;;;;;4043623;29;19934;-58
2023/11/02 14:33:32;;;;;;;;;;;15.80;88.00;;;;;;4043750;29;19946;-55
2023/11/02 14:36:18;;;;;;;;;;;15.80;87.40;;;;;;4044110;29;19938;-54
2023/11/02 14:39:00;;;;;;;;;;;15.80;87.50;;;;;;4055526;29;19935;-54
2023/11/02 14:41:42;;;;;;;;;;;15.80;87.80;;;;;;4059523;29;19935;-52
2023/11/02 14:44:23;;;;;;;;;;;15.90;87.70;;;;;;4057662;29;19939;-53
2023/11/02 14:47:05;;;;;;;;;;;15.90;86.70;;;;;;4045366;29;19934;-53
2023/11/02 14:49:47;;;;;;;;;;;15.80;86.00;;;;;;4052410;29;20471;-53
2023/11/02 14:52:30;;;;;;;;;;;15.80;86.30;;;;;;4047342;29;19972;-54
2023/11/02 14:55:12;;;;;;;;;;;15.80;86.90;;;;;;4055374;29;19981;-52
2023/11/02 14:57:52;;;;;;;;;;;15.80;86.10;;;;;;4051285;29;20058;-53
2023/11/02 15:00:33;;;;;;;;;;;15.80;86.00;;;;;;4058048;29;19934;-55
2023/11/02 15:03:13;;;;;;;;;;;15.80;85.80;;;;;;4043282;29;19937;-55
2023/11/02 15:05:56;;;;;;;;;;;15.80;86.60;;;;;;4046190;29;20711;-54
2023/11/02 15:08:38;;;;;;;;;;;15.70;85.80;;;;;;4056849;29;19938;-55
2023/11/02 15:11:21;;;;;;;;;;;15.70;84.60;;;;;;4059209;29;20295;-53
2023/11/02 15:14:02;;;;;;;;;;;15.70;84.90;;;;;;4052500;29;19935;-51
2023/11/02 15:16:44;;;;;;;;;;;15.70;84.10;;;;;;4043715;29;19938;-53
2023/11/02 15:19:25;;;;;;;;;;;15.70;84.60;;;;;;4035989;29;19934;-51
2023/11/02 15:22:08;;;;;;;;;;;15.70;84.40;;;;;;4046583;29;19934;-50
2023/11/02 15:24:49;;;;;;;;;;;15.70;84.70;;;;;;4057953;29;20085;-54
2023/11/02 15:27:30;;;;;;;;;;;15.70;86.00;;;;;;4058663;29;19982;-51
2023/11/02 15:30:11;;;;;;;;;;;15.60;85.10;;;;;;4057437;29;19951;-50
2023/11/02 15:32:52;;;;;;;;;;;15.60;85.40;;;;;;4043279;29;20006;-52
2023/11/02 15:35:32;;;;;;;;;;;15.60;84.60;;;;;;4046256;29;20701;-53
2023/11/02 15:38:15;;;;;;;;;;;15.60;85.40;;;;;;4043794;29;19979;-53
2023/11/02 15:40:56;;;;;;;;;;;15.60;85.40;;;;;;4046041;29;19938;-55
2023/11/02 15:43:38;;;;;;;;;;;15.60;86.00;;;;;;4042494;29;25755;-49
2023/11/02 15:46:20;;;;;;;;;;;15.60;84.90;;;;;;4043066;29;20374;-52